Monday, December 10, 2018, 9:37 PM EST
Back to Local

KMTP, Montauk Airport

Location: Montauk, NY, United States Lat: 41.067
Local Time: 9:37 PM EST ( 2:37 GMT) Lon: -71.917
Time Zone: US/Eastern Elev: 6 ft

Show me the last for .
Show Coded

Time T Td Feel RH Dir Speed Gust Alt SLP Vis Weather Sky Remarks
2018-12-10 20:54 36 21 30 54 30° 7 - 30.16 30.16 0 None
2018-12-10 19:54 36 20 30 51 10° 8 - 30.16 30.16 0 None
2018-12-10 18:54 37 19 32 47 360° 6 - 30.15 30.14 0 6-hr Min Temp (7pm): 37.0°F
6-hr Max Temp (7pm): 39.0°F
2018-12-10 17:54 37 20 32 49 10° 7 - 30.13 30.13 0 None
2018-12-10 16:54 37 19 32 47 10° 6 - 30.12 30.11 0 None
2018-12-10 15:54 38 20 33 47 360° 6 - 30.11 30.11 0 None
2018-12-10 14:54 38 20 33 47 350° 6 - 30.09 30.09 0 None
2018-12-10 13:54 39 19 33 44 350° 9 - 30.09 30.09 0 None
2018-12-10 12:54 39 19 33 44 10° 9 - 30.09 30.09 0 6-hr Min Temp (1pm): 33.1°F
6-hr Max Temp (1pm): 39.0°F
2018-12-10 11:54 38 20 28 47 10° 10 18 30.08 30.08 0 None
2018-12-10 10:54 36 21 25 54 10° 10 20 30.10 30.10 0 None
2018-12-10 09:54 35 21 23 56 20° 13 23 30.12 30.11 0 None
2018-12-10 08:54 35 22 24 58 20° 14 21 30.10 30.10 0 None
2018-12-10 07:54 34 23 22 63 20° 13 21 30.09 30.09 0 None
2018-12-10 06:54 34 23 22 63 10° 13 22 30.08 30.08 0 6-hr Min Temp (7am): 32.0°F
6-hr Max Temp (7am): 35.1°F
2018-12-10 05:54 33 23 21 66 10° 12 21 30.07 30.07 0 None
2018-12-10 04:54 32 22 24 65 20° 10 - 30.07 30.06 0 None
2018-12-10 03:54 33 21 22 60 10° 12 18 30.07 30.07 0 None
2018-12-10 02:54 33 20 26 58 350° 8 - 30.09 30.09 0 None
2018-12-10 01:54 34 18 26 51 360° 10 - 30.10 30.10 0 None
2018-12-10 00:54 35 25 29 66 310° 8 - 30.12 30.11 0 6-hr Min Temp (1am): 33.1°F
6-hr Max Temp (1am): 36.0°F
2018-12-09 23:54 36 29 30 75 320° 7 - 30.13 30.12 0 24-hr Min Temp (12am): 30.0°F
24-hr Max Temp (12am): 36.0°F
2018-12-09 22:54 36 25 30 63 260° 8 - 30.17 30.16 0 None
2018-12-09 21:54 36 26 30 66 270° 8 - 30.20 30.20 0 None

Support USWX by starting your Amazon purchase here.